sensor_id;sensor_type;location;lat;lon;timestamp;P1;durP1;ratioP1;P2;durP2;ratioP2
55497;SDS011;41357;52.806;18.268;2023-04-06T00:00:47;34.05;;;13.13;;
55497;SDS011;41357;52.806;18.268;2023-04-06T00:03:14;32.42;;;11.93;;
55497;SDS011;41357;52.806;18.268;2023-04-06T00:05:40;22.33;;;10.43;;
55497;SDS011;41357;52.806;18.268;2023-04-06T00:08:06;33.55;;;12.52;;
55497;SDS011;41357;52.806;18.268;2023-04-06T00:10:33;28.55;;;11.57;;
55497;SDS011;41357;52.806;18.268;2023-04-06T00:12:59;32.83;;;12.60;;
55497;SDS011;41357;52.806;18.268;2023-04-06T00:15:25;31.48;;;12.50;;
55497;SDS011;41357;52.806;18.268;2023-04-06T00:17:52;30.13;;;12.07;;
55497;SDS011;41357;52.806;18.268;2023-04-06T00:20:18;29.08;;;11.65;;
55497;SDS011;41357;52.806;18.268;2023-04-06T00:22:45;29.20;;;11.20;;
55497;SDS011;41357;52.806;18.268;2023-04-06T00:25:11;25.40;;;11.15;;
55497;SDS011;41357;52.806;18.268;2023-04-06T00:27:37;42.05;;;14.80;;
55497;SDS011;41357;52.806;18.268;2023-04-06T00:30:04;33.50;;;13.52;;
55497;SDS011;41357;52.806;18.268;2023-04-06T00:32:31;35.67;;;14.27;;
55497;SDS011;41357;52.806;18.268;2023-04-06T00:34:57;42.05;;;14.40;;
55497;SDS011;41357;52.806;18.268;2023-04-06T00:37:24;49.15;;;16.17;;
55497;SDS011;41357;52.806;18.268;2023-04-06T00:39:50;36.17;;;14.55;;
55497;SDS011;41357;52.806;18.268;2023-04-06T00:42:16;35.47;;;13.00;;
55497;SDS011;41357;52.806;18.268;2023-04-06T00:44:50;30.60;;;13.02;;
55497;SDS011;41357;52.806;18.268;2023-04-06T00:47:16;34.45;;;13.38;;
55497;SDS011;41357;52.806;18.268;2023-04-06T00:49:43;36.38;;;13.98;;
55497;SDS011;41357;52.806;18.268;2023-04-06T00:52:09;38.75;;;15.27;;
55497;SDS011;41357;52.806;18.268;2023-04-06T00:54:35;36.05;;;14.55;;
55497;SDS011;41357;52.806;18.268;2023-04-06T00:57:01;34.92;;;13.98;;
55497;SDS011;41357;52.806;18.268;2023-04-06T00:59:27;41.45;;;14.77;;
55497;SDS011;41357;52.806;18.268;2023-04-06T01:01:54;48.30;;;16.30;;
55497;SDS011;41357;52.806;18.268;2023-04-06T01:04:21;36.50;;;13.98;;
55497;SDS011;41357;52.806;18.268;2023-04-06T01:06:50;37.35;;;14.32;;
55497;SDS011;41357;52.806;18.268;2023-04-06T01:09:16;34.95;;;13.05;;
55497;SDS011;41357;52.806;18.268;2023-04-06T01:11:42;35.13;;;13.27;;
55497;SDS011;41357;52.806;18.268;2023-04-06T01:14:09;25.45;;;12.73;;
55497;SDS011;41357;52.806;18.268;2023-04-06T01:16:35;30.63;;;12.55;;
55497;SDS011;41357;52.806;18.268;2023-04-06T01:19:15;30.10;;;12.07;;
55497;SDS011;41357;52.806;18.268;2023-04-06T01:21:41;30.48;;;11.75;;
55497;SDS011;41357;52.806;18.268;2023-04-06T01:24:07;33.03;;;12.32;;
55497;SDS011;41357;52.806;18.268;2023-04-06T01:26:34;29.15;;;12.00;;
55497;SDS011;41357;52.806;18.268;2023-04-06T01:29:01;29.48;;;11.27;;
55497;SDS011;41357;52.806;18.268;2023-04-06T01:31:27;24.63;;;10.85;;
55497;SDS011;41357;52.806;18.268;2023-04-06T01:33:53;26.52;;;11.27;;
55497;SDS011;41357;52.806;18.268;2023-04-06T01:36:19;26.50;;;11.23;;
55497;SDS011;41357;52.806;18.268;2023-04-06T01:38:46;27.52;;;11.77;;
55497;SDS011;41357;52.806;18.268;2023-04-06T01:41:12;27.65;;;10.70;;
55497;SDS011;41357;52.806;18.268;2023-04-06T01:43:38;28.52;;;10.63;;
55497;SDS011;41357;52.806;18.268;2023-04-06T01:46:04;24.00;;;10.80;;
55497;SDS011;41357;52.806;18.268;2023-04-06T01:48:30;24.40;;;11.15;;
55497;SDS011;41357;52.806;18.268;2023-04-06T01:50:57;29.90;;;11.20;;
55497;SDS011;41357;52.806;18.268;2023-04-06T01:53:23;24.27;;;11.82;;
55497;SDS011;41357;52.806;18.268;2023-04-06T01:55:49;24.85;;;10.77;;
55497;SDS011;41357;52.806;18.268;2023-04-06T01:58:15;24.48;;;11.10;;
55497;SDS011;41357;52.806;18.268;2023-04-06T02:00:41;22.88;;;10.40;;
55497;SDS011;41357;52.806;18.268;2023-04-06T02:03:07;24.45;;;10.48;;
55497;SDS011;41357;52.806;18.268;2023-04-06T02:05:34;25.75;;;11.18;;
55497;SDS011;41357;52.806;18.268;2023-04-06T02:08:06;24.52;;;10.68;;
55497;SDS011;41357;52.806;18.268;2023-04-06T02:10:35;28.92;;;10.60;;
55497;SDS011;41357;52.806;18.268;2023-04-06T02:13:01;24.77;;;9.73;;
55497;SDS011;41357;52.806;18.268;2023-04-06T02:15:27;23.13;;;10.40;;
55497;SDS011;41357;52.806;18.268;2023-04-06T02:17:53;30.33;;;11.30;;
55497;SDS011;41357;52.806;18.268;2023-04-06T02:20:19;27.42;;;10.40;;
55497;SDS011;41357;52.806;18.268;2023-04-06T02:22:45;27.60;;;11.65;;
55497;SDS011;41357;52.806;18.268;2023-04-06T02:25:11;23.15;;;10.32;;
55497;SDS011;41357;52.806;18.268;2023-04-06T02:27:37;23.65;;;9.68;;
55497;SDS011;41357;52.806;18.268;2023-04-06T02:30:04;25.17;;;10.50;;
55497;SDS011;41357;52.806;18.268;2023-04-06T02:32:30;22.98;;;10.57;;
55497;SDS011;41357;52.806;18.268;2023-04-06T02:34:56;22.63;;;10.13;;
55497;SDS011;41357;52.806;18.268;2023-04-06T02:37:22;24.58;;;10.40;;
55497;SDS011;41357;52.806;18.268;2023-04-06T02:39:49;20.88;;;9.88;;
55497;SDS011;41357;52.806;18.268;2023-04-06T02:42:15;21.88;;;10.52;;
55497;SDS011;41357;52.806;18.268;2023-04-06T02:44:42;24.42;;;10.43;;
55497;SDS011;41357;52.806;18.268;2023-04-06T02:47:08;23.42;;;10.52;;
55497;SDS011;41357;52.806;18.268;2023-04-06T02:49:34;28.77;;;11.10;;
55497;SDS011;41357;52.806;18.268;2023-04-06T02:52:01;26.77;;;10.50;;
55497;SDS011;41357;52.806;18.268;2023-04-06T02:54:27;28.13;;;10.35;;
55497;SDS011;41357;52.806;18.268;2023-04-06T02:56:53;24.42;;;10.55;;
55497;SDS011;41357;52.806;18.268;2023-04-06T02:59:19;26.33;;;10.57;;
55497;SDS011;41357;52.806;18.268;2023-04-06T03:01:46;22.75;;;11.02;;
55497;SDS011;41357;52.806;18.268;2023-04-06T03:04:12;29.50;;;11.75;;
55497;SDS011;41357;52.806;18.268;2023-04-06T03:06:38;21.85;;;10.13;;
55497;SDS011;41357;52.806;18.268;2023-04-06T03:09:05;23.38;;;10.05;;
55497;SDS011;41357;52.806;18.268;2023-04-06T03:11:31;23.98;;;9.35;;
55497;SDS011;41357;52.806;18.268;2023-04-06T03:13:57;28.10;;;10.82;;
55497;SDS011;41357;52.806;18.268;2023-04-06T03:16:24;23.63;;;10.40;;
55497;SDS011;41357;52.806;18.268;2023-04-06T03:18:50;25.60;;;9.93;;
55497;SDS011;41357;52.806;18.268;2023-04-06T03:21:16;20.25;;;9.25;;
55497;SDS011;41357;52.806;18.268;2023-04-06T03:23:44;21.65;;;9.50;;
55497;SDS011;41357;52.806;18.268;2023-04-06T03:26:10;26.52;;;10.10;;
55497;SDS011;41357;52.806;18.268;2023-04-06T03:28:36;21.80;;;10.63;;
55497;SDS011;41357;52.806;18.268;2023-04-06T03:31:02;26.38;;;9.43;;
55497;SDS011;41357;52.806;18.268;2023-04-06T03:33:29;22.63;;;9.35;;
55497;SDS011;41357;52.806;18.268;2023-04-06T03:35:55;19.40;;;9.35;;
55497;SDS011;41357;52.806;18.268;2023-04-06T03:38:21;24.38;;;9.65;;
55497;SDS011;41357;52.806;18.268;2023-04-06T03:40:47;25.67;;;10.00;;
55497;SDS011;41357;52.806;18.268;2023-04-06T03:43:13;25.75;;;10.70;;
55497;SDS011;41357;52.806;18.268;2023-04-06T03:45:39;25.33;;;9.50;;
55497;SDS011;41357;52.806;18.268;2023-04-06T03:48:05;23.77;;;9.80;;
55497;SDS011;41357;52.806;18.268;2023-04-06T03:50:31;24.77;;;10.85;;
55497;SDS011;41357;52.806;18.268;2023-04-06T03:52:57;19.02;;;9.13;;
55497;SDS011;41357;52.806;18.268;2023-04-06T03:55:24;24.10;;;9.60;;
55497;SDS011;41357;52.806;18.268;2023-04-06T03:57:50;27.88;;;11.50;;
55497;SDS011;41357;52.806;18.268;2023-04-06T04:00:16;25.65;;;10.90;;
55497;SDS011;41357;52.806;18.268;2023-04-06T04:02:42;23.02;;;10.65;;
55497;SDS011;41357;52.806;18.268;2023-04-06T04:05:08;23.52;;;11.18;;
55497;SDS011;41357;52.806;18.268;2023-04-06T04:07:34;25.27;;;11.95;;
55497;SDS011;41357;52.806;18.268;2023-04-06T04:10:00;23.80;;;10.80;;
55497;SDS011;41357;52.806;18.268;2023-04-06T04:12:27;35.15;;;12.32;;
55497;SDS011;41357;52.806;18.268;2023-04-06T04:14:53;27.92;;;10.65;;
55497;SDS011;41357;52.806;18.268;2023-04-06T04:17:19;28.60;;;11.73;;
55497;SDS011;41357;52.806;18.268;2023-04-06T04:19:45;27.05;;;11.30;;
55497;SDS011;41357;52.806;18.268;2023-04-06T04:22:11;28.40;;;12.65;;
55497;SDS011;41357;52.806;18.268;2023-04-06T04:24:37;28.88;;;11.88;;
55497;SDS011;41357;52.806;18.268;2023-04-06T04:27:03;26.35;;;11.70;;
55497;SDS011;41357;52.806;18.268;2023-04-06T04:29:30;32.72;;;11.70;;
55497;SDS011;41357;52.806;18.268;2023-04-06T04:31:56;25.70;;;10.68;;
55497;SDS011;41357;52.806;18.268;2023-04-06T04:34:22;31.90;;;12.18;;
55497;SDS011;41357;52.806;18.268;2023-04-06T04:36:52;26.65;;;11.20;;
55497;SDS011;41357;52.806;18.268;2023-04-06T04:39:18;28.38;;;11.98;;
55497;SDS011;41357;52.806;18.268;2023-04-06T04:41:44;21.60;;;10.18;;
55497;SDS011;41357;52.806;18.268;2023-04-06T04:44:10;25.60;;;10.93;;
55497;SDS011;41357;52.806;18.268;2023-04-06T04:46:36;27.80;;;11.23;;
55497;SDS011;41357;52.806;18.268;2023-04-06T04:49:02;26.17;;;11.52;;
55497;SDS011;41357;52.806;18.268;2023-04-06T04:51:28;37.90;;;15.13;;
55497;SDS011;41357;52.806;18.268;2023-04-06T04:53:56;43.60;;;15.82;;
55497;SDS011;41357;52.806;18.268;2023-04-06T04:56:22;38.65;;;15.55;;
55497;SDS011;41357;52.806;18.268;2023-04-06T04:58:48;51.40;;;17.60;;
55497;SDS011;41357;52.806;18.268;2023-04-06T05:01:15;49.40;;;17.73;;
55497;SDS011;41357;52.806;18.268;2023-04-06T05:03:41;42.00;;;13.95;;
55497;SDS011;41357;52.806;18.268;2023-04-06T05:06:07;39.78;;;16.88;;
55497;SDS011;41357;52.806;18.268;2023-04-06T05:08:33;33.85;;;14.15;;
55497;SDS011;41357;52.806;18.268;2023-04-06T05:10:59;32.70;;;14.75;;
55497;SDS011;41357;52.806;18.268;2023-04-06T05:13:25;27.35;;;12.77;;
55497;SDS011;41357;52.806;18.268;2023-04-06T05:15:51;27.50;;;11.07;;
55497;SDS011;41357;52.806;18.268;2023-04-06T05:18:18;19.35;;;10.43;;
55497;SDS011;41357;52.806;18.268;2023-04-06T05:20:44;31.45;;;11.23;;
55497;SDS011;41357;52.806;18.268;2023-04-06T05:23:10;28.38;;;10.45;;
55497;SDS011;41357;52.806;18.268;2023-04-06T05:25:37;30.52;;;10.88;;
55497;SDS011;41357;52.806;18.268;2023-04-06T05:28:03;21.85;;;10.15;;
55497;SDS011;41357;52.806;18.268;2023-04-06T05:30:29;23.92;;;10.50;;
55497;SDS011;41357;52.806;18.268;2023-04-06T05:32:55;27.95;;;11.00;;
55497;SDS011;41357;52.806;18.268;2023-04-06T05:35:22;24.55;;;11.30;;
55497;SDS011;41357;52.806;18.268;2023-04-06T05:37:48;36.55;;;16.90;;
55497;SDS011;41357;52.806;18.268;2023-04-06T05:40:14;36.70;;;16.02;;
55497;SDS011;41357;52.806;18.268;2023-04-06T05:42:40;52.08;;;21.02;;
55497;SDS011;41357;52.806;18.268;2023-04-06T05:45:07;49.95;;;18.70;;
55497;SDS011;41357;52.806;18.268;2023-04-06T05:47:34;45.35;;;17.25;;
55497;SDS011;41357;52.806;18.268;2023-04-06T05:50:00;44.53;;;16.00;;
55497;SDS011;41357;52.806;18.268;2023-04-06T05:52:27;39.38;;;15.85;;
55497;SDS011;41357;52.806;18.268;2023-04-06T05:54:53;33.33;;;13.25;;
55497;SDS011;41357;52.806;18.268;2023-04-06T05:57:19;28.40;;;12.38;;
55497;SDS011;41357;52.806;18.268;2023-04-06T05:59:45;33.72;;;11.60;;
55497;SDS011;41357;52.806;18.268;2023-04-06T06:02:11;28.67;;;11.85;;
55497;SDS011;41357;52.806;18.268;2023-04-06T06:04:38;36.63;;;11.93;;
55497;SDS011;41357;52.806;18.268;2023-04-06T06:07:05;24.58;;;11.05;;
55497;SDS011;41357;52.806;18.268;2023-04-06T06:09:31;21.75;;;10.07;;
55497;SDS011;41357;52.806;18.268;2023-04-06T06:11:57;20.73;;;9.73;;
55497;SDS011;41357;52.806;18.268;2023-04-06T06:14:23;21.70;;;9.48;;
55497;SDS011;41357;52.806;18.268;2023-04-06T06:16:49;19.27;;;9.30;;
55497;SDS011;41357;52.806;18.268;2023-04-06T06:19:15;18.48;;;9.70;;
55497;SDS011;41357;52.806;18.268;2023-04-06T06:21:41;16.23;;;8.23;;
55497;SDS011;41357;52.806;18.268;2023-04-06T06:24:07;23.92;;;8.63;;
55497;SDS011;41357;52.806;18.268;2023-04-06T06:26:34;23.92;;;9.50;;
55497;SDS011;41357;52.806;18.268;2023-04-06T06:29:02;18.83;;;8.50;;
55497;SDS011;41357;52.806;18.268;2023-04-06T06:31:30;16.67;;;7.30;;
55497;SDS011;41357;52.806;18.268;2023-04-06T06:33:56;16.80;;;7.25;;
55497;SDS011;41357;52.806;18.268;2023-04-06T06:36:23;19.35;;;7.30;;
55497;SDS011;41357;52.806;18.268;2023-04-06T06:38:50;15.60;;;7.65;;
55497;SDS011;41357;52.806;18.268;2023-04-06T06:41:16;20.25;;;8.43;;
55497;SDS011;41357;52.806;18.268;2023-04-06T06:43:42;20.17;;;8.27;;
55497;SDS011;41357;52.806;18.268;2023-04-06T06:46:09;19.02;;;7.90;;
55497;SDS011;41357;52.806;18.268;2023-04-06T06:48:35;15.38;;;6.93;;
55497;SDS011;41357;52.806;18.268;2023-04-06T06:51:01;19.70;;;8.25;;
55497;SDS011;41357;52.806;18.268;2023-04-06T06:53:27;18.75;;;7.95;;
55497;SDS011;41357;52.806;18.268;2023-04-06T06:55:53;17.40;;;7.35;;
55497;SDS011;41357;52.806;18.268;2023-04-06T06:58:20;13.23;;;6.28;;
55497;SDS011;41357;52.806;18.268;2023-04-06T07:00:46;20.65;;;6.40;;
55497;SDS011;41357;52.806;18.268;2023-04-06T07:03:12;16.40;;;6.93;;
55497;SDS011;41357;52.806;18.268;2023-04-06T07:05:39;14.90;;;6.38;;
55497;SDS011;41357;52.806;18.268;2023-04-06T07:08:05;12.55;;;6.38;;
55497;SDS011;41357;52.806;18.268;2023-04-06T07:10:31;13.75;;;6.57;;
55497;SDS011;41357;52.806;18.268;2023-04-06T07:12:57;11.40;;;6.45;;
55497;SDS011;41357;52.806;18.268;2023-04-06T07:15:23;14.18;;;6.63;;
55497;SDS011;41357;52.806;18.268;2023-04-06T07:17:49;12.02;;;6.55;;
55497;SDS011;41357;52.806;18.268;2023-04-06T07:20:17;13.70;;;6.70;;
55497;SDS011;41357;52.806;18.268;2023-04-06T07:22:43;11.55;;;6.15;;
55497;SDS011;41357;52.806;18.268;2023-04-06T07:25:10;13.77;;;6.00;;
55497;SDS011;41357;52.806;18.268;2023-04-06T07:27:36;13.45;;;6.38;;
55497;SDS011;41357;52.806;18.268;2023-04-06T07:30:02;18.15;;;7.45;;
55497;SDS011;41357;52.806;18.268;2023-04-06T07:32:28;12.40;;;6.03;;
55497;SDS011;41357;52.806;18.268;2023-04-06T07:34:55;7.93;;;4.10;;
55497;SDS011;41357;52.806;18.268;2023-04-06T07:37:22;6.13;;;3.47;;
55497;SDS011;41357;52.806;18.268;2023-04-06T07:39:48;8.00;;;4.22;;
55497;SDS011;41357;52.806;18.268;2023-04-06T07:42:14;10.43;;;4.68;;
55497;SDS011;41357;52.806;18.268;2023-04-06T07:44:40;11.48;;;4.10;;
55497;SDS011;41357;52.806;18.268;2023-04-06T07:47:06;11.93;;;4.93;;
55497;SDS011;41357;52.806;18.268;2023-04-06T07:49:33;9.43;;;4.50;;
55497;SDS011;41357;52.806;18.268;2023-04-06T07:51:59;10.27;;;4.45;;
55497;SDS011;41357;52.806;18.268;2023-04-06T07:54:27;7.22;;;3.78;;
55497;SDS011;41357;52.806;18.268;2023-04-06T07:56:54;9.43;;;3.50;;
55497;SDS011;41357;52.806;18.268;2023-04-06T07:59:20;8.88;;;4.03;;
55497;SDS011;41357;52.806;18.268;2023-04-06T08:01:46;7.90;;;3.72;;
55497;SDS011;41357;52.806;18.268;2023-04-06T08:04:12;4.20;;;2.65;;
55497;SDS011;41357;52.806;18.268;2023-04-06T08:06:38;7.95;;;3.92;;
55497;SDS011;41357;52.806;18.268;2023-04-06T08:09:06;10.60;;;4.35;;
55497;SDS011;41357;52.806;18.268;2023-04-06T08:11:32;6.63;;;3.33;;
55497;SDS011;41357;52.806;18.268;2023-04-06T08:13:58;7.30;;;2.42;;
55497;SDS011;41357;52.806;18.268;2023-04-06T08:16:24;29.20;;;3.03;;
55497;SDS011;41357;52.806;18.268;2023-04-06T08:18:50;4.82;;;2.67;;
55497;SDS011;41357;52.806;18.268;2023-04-06T08:21:16;5.25;;;2.85;;
55497;SDS011;41357;52.806;18.268;2023-04-06T08:23:42;5.22;;;2.70;;
55497;SDS011;41357;52.806;18.268;2023-04-06T08:26:09;6.57;;;2.67;;
55497;SDS011;41357;52.806;18.268;2023-04-06T08:28:35;4.68;;;2.53;;
55497;SDS011;41357;52.806;18.268;2023-04-06T08:31:04;7.00;;;2.83;;
55497;SDS011;41357;52.806;18.268;2023-04-06T08:33:31;6.72;;;2.70;;
55497;SDS011;41357;52.806;18.268;2023-04-06T08:36:05;6.88;;;3.65;;
55497;SDS011;41357;52.806;18.268;2023-04-06T08:38:32;4.90;;;2.88;;
55497;SDS011;41357;52.806;18.268;2023-04-06T08:40:58;8.38;;;3.28;;
55497;SDS011;41357;52.806;18.268;2023-04-06T08:43:24;6.28;;;2.70;;
55497;SDS011;41357;52.806;18.268;2023-04-06T08:45:52;5.80;;;2.80;;
55497;SDS011;41357;52.806;18.268;2023-04-06T08:48:19;9.38;;;2.65;;
55497;SDS011;41357;52.806;18.268;2023-04-06T08:50:46;7.13;;;3.50;;
55497;SDS011;41357;52.806;18.268;2023-04-06T08:53:12;5.63;;;2.75;;
55497;SDS011;41357;52.806;18.268;2023-04-06T08:55:39;6.93;;;2.90;;
55497;SDS011;41357;52.806;18.268;2023-04-06T08:58:06;8.43;;;3.15;;
55497;SDS011;41357;52.806;18.268;2023-04-06T09:00:33;8.00;;;3.83;;
55497;SDS011;41357;52.806;18.268;2023-04-06T09:03:02;8.13;;;3.72;;
55497;SDS011;41357;52.806;18.268;2023-04-06T09:05:29;7.57;;;3.58;;
55497;SDS011;41357;52.806;18.268;2023-04-06T09:07:55;10.02;;;3.88;;
55497;SDS011;41357;52.806;18.268;2023-04-06T09:10:22;6.95;;;3.13;;
55497;SDS011;41357;52.806;18.268;2023-04-06T09:12:50;5.93;;;2.67;;
55497;SDS011;41357;52.806;18.268;2023-04-06T09:15:21;5.07;;;3.45;;
55497;SDS011;41357;52.806;18.268;2023-04-06T09:17:48;5.35;;;2.58;;
55497;SDS011;41357;52.806;18.268;2023-04-06T09:20:14;5.53;;;3.00;;
55497;SDS011;41357;52.806;18.268;2023-04-06T09:22:42;7.82;;;3.53;;
55497;SDS011;41357;52.806;18.268;2023-04-06T09:25:08;7.40;;;3.70;;
55497;SDS011;41357;52.806;18.268;2023-04-06T09:27:36;4.82;;;3.05;;
55497;SDS011;41357;52.806;18.268;2023-04-06T09:30:03;4.95;;;2.72;;
55497;SDS011;41357;52.806;18.268;2023-04-06T09:32:30;6.47;;;2.47;;
55497;SDS011;41357;52.806;18.268;2023-04-06T09:35:09;6.70;;;2.53;;
55497;SDS011;41357;52.806;18.268;2023-04-06T09:37:35;5.18;;;2.85;;
55497;SDS011;41357;52.806;18.268;2023-04-06T09:40:02;3.45;;;1.75;;
55497;SDS011;41357;52.806;18.268;2023-04-06T09:42:28;3.55;;;2.10;;
55497;SDS011;41357;52.806;18.268;2023-04-06T09:44:55;4.18;;;2.15;;
55497;SDS011;41357;52.806;18.268;2023-04-06T09:47:21;3.63;;;2.10;;
55497;SDS011;41357;52.806;18.268;2023-04-06T09:49:48;3.58;;;1.77;;
55497;SDS011;41357;52.806;18.268;2023-04-06T09:52:16;3.88;;;2.05;;
55497;SDS011;41357;52.806;18.268;2023-04-06T09:54:42;4.05;;;1.67;;
55497;SDS011;41357;52.806;18.268;2023-04-06T09:57:22;11.57;;;2.88;;
55497;SDS011;41357;52.806;18.268;2023-04-06T10:02:33;4.88;;;2.10;;
55497;SDS011;41357;52.806;18.268;2023-04-06T10:07:46;6.03;;;2.20;;
55497;SDS011;41357;52.806;18.268;2023-04-06T10:10:13;3.83;;;1.85;;
55497;SDS011;41357;52.806;18.268;2023-04-06T10:12:40;5.20;;;2.72;;
55497;SDS011;41357;52.806;18.268;2023-04-06T10:15:07;5.63;;;2.25;;
55497;SDS011;41357;52.806;18.268;2023-04-06T10:17:34;4.45;;;2.45;;
55497;SDS011;41357;52.806;18.268;2023-04-06T10:20:06;7.80;;;2.83;;
55497;SDS011;41357;52.806;18.268;2023-04-06T10:22:38;6.22;;;2.80;;
55497;SDS011;41357;52.806;18.268;2023-04-06T10:25:08;11.57;;;2.88;;
55497;SDS011;41357;52.806;18.268;2023-04-06T10:27:34;5.85;;;2.88;;
55497;SDS011;41357;52.806;18.268;2023-04-06T10:30:03;6.68;;;3.35;;
55497;SDS011;41357;52.806;18.268;2023-04-06T10:32:33;4.85;;;2.45;;
55497;SDS011;41357;52.806;18.268;2023-04-06T10:37:45;3.47;;;1.95;;
55497;SDS011;41357;52.806;18.268;2023-04-06T10:40:25;4.78;;;1.73;;
55497;SDS011;41357;52.806;18.268;2023-04-06T10:42:54;6.60;;;2.95;;
55497;SDS011;41357;52.806;18.268;2023-04-06T10:45:25;12.05;;;5.65;;
55497;SDS011;41357;52.806;18.268;2023-04-06T10:47:52;4.85;;;2.38;;
55497;SDS011;41357;52.806;18.268;2023-04-06T10:50:19;8.98;;;2.50;;
55497;SDS011;41357;52.806;18.268;2023-04-06T10:52:45;4.75;;;2.75;;
55497;SDS011;41357;52.806;18.268;2023-04-06T10:55:15;8.70;;;2.85;;
55497;SDS011;41357;52.806;18.268;2023-04-06T10:57:41;6.78;;;3.20;;
55497;SDS011;41357;52.806;18.268;2023-04-06T11:00:07;5.82;;;2.63;;
55497;SDS011;41357;52.806;18.268;2023-04-06T11:02:34;8.13;;;3.30;;
55497;SDS011;41357;52.806;18.268;2023-04-06T11:05:03;5.75;;;3.00;;
55497;SDS011;41357;52.806;18.268;2023-04-06T11:07:29;3.90;;;2.50;;
55497;SDS011;41357;52.806;18.268;2023-04-06T11:09:55;5.10;;;2.88;;
55497;SDS011;41357;52.806;18.268;2023-04-06T11:12:25;6.65;;;3.38;;
55497;SDS011;41357;52.806;18.268;2023-04-06T11:14:55;7.35;;;3.78;;
55497;SDS011;41357;52.806;18.268;2023-04-06T11:17:26;5.53;;;3.10;;
55497;SDS011;41357;52.806;18.268;2023-04-06T11:19:53;5.45;;;3.45;;
55497;SDS011;41357;52.806;18.268;2023-04-06T11:22:19;6.65;;;3.28;;
55497;SDS011;41357;52.806;18.268;2023-04-06T11:24:45;4.30;;;3.00;;
55497;SDS011;41357;52.806;18.268;2023-04-06T11:27:12;5.47;;;3.20;;
55497;SDS011;41357;52.806;18.268;2023-04-06T11:29:41;5.95;;;3.30;;
55497;SDS011;41357;52.806;18.268;2023-04-06T11:32:07;10.10;;;4.07;;
55497;SDS011;41357;52.806;18.268;2023-04-06T11:34:34;7.25;;;3.45;;
55497;SDS011;41357;52.806;18.268;2023-04-06T11:37:02;9.13;;;3.67;;
55497;SDS011;41357;52.806;18.268;2023-04-06T11:39:31;6.55;;;4.10;;
55497;SDS011;41357;52.806;18.268;2023-04-06T11:41:58;78.22;;;6.60;;
55497;SDS011;41357;52.806;18.268;2023-04-06T11:47:14;5.82;;;3.15;;
55497;SDS011;41357;52.806;18.268;2023-04-06T11:49:41;8.60;;;3.75;;
55497;SDS011;41357;52.806;18.268;2023-04-06T11:52:14;6.43;;;3.10;;
55497;SDS011;41357;52.806;18.268;2023-04-06T11:54:40;5.82;;;3.53;;
55497;SDS011;41357;52.806;18.268;2023-04-06T11:57:07;5.95;;;3.08;;
55497;SDS011;41357;52.806;18.268;2023-04-06T11:59:34;5.70;;;3.00;;
55497;SDS011;41357;52.806;18.268;2023-04-06T12:02:03;6.03;;;3.15;;
55497;SDS011;41357;52.806;18.268;2023-04-06T12:04:29;6.78;;;3.55;;
55497;SDS011;41357;52.806;18.268;2023-04-06T12:06:56;10.00;;;4.50;;
55497;SDS011;41357;52.806;18.268;2023-04-06T12:09:22;8.73;;;4.15;;
55497;SDS011;41357;52.806;18.268;2023-04-06T12:11:48;16.35;;;4.03;;
55497;SDS011;41357;52.806;18.268;2023-04-06T12:14:15;6.80;;;3.35;;
55497;SDS011;41357;52.806;18.268;2023-04-06T12:16:41;8.45;;;3.67;;
55497;SDS011;41357;52.806;18.268;2023-04-06T12:19:08;5.68;;;3.22;;
55497;SDS011;41357;52.806;18.268;2023-04-06T12:21:35;6.38;;;3.47;;
55497;SDS011;41357;52.806;18.268;2023-04-06T12:24:02;5.93;;;3.15;;
55497;SDS011;41357;52.806;18.268;2023-04-06T12:26:29;6.70;;;3.35;;
55497;SDS011;41357;52.806;18.268;2023-04-06T12:28:56;6.88;;;2.78;;
55497;SDS011;41357;52.806;18.268;2023-04-06T12:31:22;4.85;;;3.40;;
55497;SDS011;41357;52.806;18.268;2023-04-06T12:33:50;7.53;;;3.50;;
55497;SDS011;41357;52.806;18.268;2023-04-06T12:36:17;4.05;;;2.25;;
55497;SDS011;41357;52.806;18.268;2023-04-06T12:38:47;8.15;;;3.60;;
55497;SDS011;41357;52.806;18.268;2023-04-06T12:41:14;7.30;;;2.97;;
55497;SDS011;41357;52.806;18.268;2023-04-06T12:43:40;5.88;;;3.00;;
55497;SDS011;41357;52.806;18.268;2023-04-06T12:46:07;9.00;;;3.22;;
55497;SDS011;41357;52.806;18.268;2023-04-06T12:48:33;10.43;;;3.25;;
55497;SDS011;41357;52.806;18.268;2023-04-06T12:51:01;5.90;;;2.50;;
55497;SDS011;41357;52.806;18.268;2023-04-06T12:53:28;6.50;;;2.80;;
55497;SDS011;41357;52.806;18.268;2023-04-06T12:55:54;6.60;;;3.53;;
55497;SDS011;41357;52.806;18.268;2023-04-06T12:58:21;8.77;;;3.75;;
55497;SDS011;41357;52.806;18.268;2023-04-06T13:00:48;7.97;;;3.35;;
55497;SDS011;41357;52.806;18.268;2023-04-06T13:03:15;6.60;;;2.80;;
55497;SDS011;41357;52.806;18.268;2023-04-06T13:05:44;13.82;;;4.10;;
55497;SDS011;41357;52.806;18.268;2023-04-06T13:08:11;7.20;;;3.53;;
55497;SDS011;41357;52.806;18.268;2023-04-06T13:10:37;5.32;;;2.53;;
55497;SDS011;41357;52.806;18.268;2023-04-06T13:13:04;4.65;;;2.70;;
55497;SDS011;41357;52.806;18.268;2023-04-06T13:15:31;4.10;;;2.90;;
55497;SDS011;41357;52.806;18.268;2023-04-06T13:17:57;7.35;;;2.78;;
55497;SDS011;41357;52.806;18.268;2023-04-06T13:20:23;8.20;;;2.50;;
55497;SDS011;41357;52.806;18.268;2023-04-06T13:22:50;8.70;;;2.90;;
55497;SDS011;41357;52.806;18.268;2023-04-06T13:25:16;6.05;;;2.88;;
55497;SDS011;41357;52.806;18.268;2023-04-06T13:27:42;6.25;;;2.80;;
55497;SDS011;41357;52.806;18.268;2023-04-06T13:30:11;6.13;;;2.55;;
55497;SDS011;41357;52.806;18.268;2023-04-06T13:32:38;8.85;;;2.30;;
55497;SDS011;41357;52.806;18.268;2023-04-06T13:35:04;6.25;;;3.00;;
55497;SDS011;41357;52.806;18.268;2023-04-06T13:37:31;5.95;;;2.70;;
55497;SDS011;41357;52.806;18.268;2023-04-06T13:39:57;5.63;;;2.70;;
55497;SDS011;41357;52.806;18.268;2023-04-06T13:42:24;11.75;;;3.05;;
55497;SDS011;41357;52.806;18.268;2023-04-06T13:44:50;11.95;;;2.85;;
55497;SDS011;41357;52.806;18.268;2023-04-06T13:47:16;4.88;;;2.78;;
55497;SDS011;41357;52.806;18.268;2023-04-06T13:49:43;5.60;;;2.50;;
55497;SDS011;41357;52.806;18.268;2023-04-06T13:52:10;4.43;;;2.72;;
55497;SDS011;41357;52.806;18.268;2023-04-06T13:54:36;8.77;;;3.20;;
55497;SDS011;41357;52.806;18.268;2023-04-06T13:57:02;5.68;;;2.83;;
55497;SDS011;41357;52.806;18.268;2023-04-06T13:59:35;5.68;;;3.20;;
55497;SDS011;41357;52.806;18.268;2023-04-06T14:02:02;7.97;;;3.13;;
55497;SDS011;41357;52.806;18.268;2023-04-06T14:04:28;11.00;;;4.03;;
55497;SDS011;41357;52.806;18.268;2023-04-06T14:06:55;8.13;;;3.65;;
55497;SDS011;41357;52.806;18.268;2023-04-06T14:09:21;6.80;;;3.63;;
55497;SDS011;41357;52.806;18.268;2023-04-06T14:11:48;5.97;;;3.03;;
55497;SDS011;41357;52.806;18.268;2023-04-06T14:14:15;15.32;;;3.03;;
55497;SDS011;41357;52.806;18.268;2023-04-06T14:16:41;12.10;;;4.90;;
55497;SDS011;41357;52.806;18.268;2023-04-06T14:19:11;18.02;;;5.93;;
55497;SDS011;41357;52.806;18.268;2023-04-06T14:21:39;13.20;;;4.13;;
55497;SDS011;41357;52.806;18.268;2023-04-06T14:24:06;8.05;;;3.42;;
55497;SDS011;41357;52.806;18.268;2023-04-06T14:26:33;7.38;;;3.50;;
55497;SDS011;41357;52.806;18.268;2023-04-06T14:28:59;11.95;;;2.95;;